American Falls, ID (83211)

3:24 AM MST on February 06, 2016 (GMT -0700)
The Hood | | Change Station
CLOSE
Current Station
Personal Weather Station
Location: Rockland, ID
Elevation: 4560 ft
Nearby Weather Stations

Elev 4560 ft 42.57 °N, 112.88 °W | Updated 14 minutes ago

Partly Cloudy
Partly Cloudy
27.9 °F
Feels Like 18 °F
N
10.4
Wind Variable Wind from SE

Today
High -- | Low -- °F
--% Chance of Precip.
Yesterday
High -- | Low -- °F
Precip. -- in
Pressure 30.64 in
Visibility 6.0 miles
Clouds Clear
Windchill 18 °F
Dew Point 24 °F
Humidity 87%
Rainfall 0.00 in
Snow Depth Not available.
7:41 AM 5:51 PM
Waning Crescent, 6% visible
METAR KPIH 060953Z AUTO 00000KT 6SM BR CLR M11/M12 A3048 RMK AO2 SLP375 T11061117
Pressure 30.64 in
Visibility 6.0 miles
Clouds Clear
Windchill 18 °F
Dew Point 24 °F
Humidity 87%
Rainfall 0.00 in
Snow Depth Not available.
7:41 AM 5:51 PM
Waning Crescent, 6% visible
METAR KPIH 060953Z AUTO 00000KT 6SM BR CLR M11/M12 A3048 RMK AO2 SLP375 T11061117

10-Day Weather Forecast

Almanac

Astronomy

Feb. 06, 2016 Rise Set
Actual Time
Civil Twilight
Nautical Twilight
Astronomical Twilight
Moon
Length of Visible Light
Length of Day
Tomorrow will be .
, % of the Moon is Illuminated

Today's Extremes

State Highs State Lows

Community

WunderPhotos

Upload Photos

1,890,933 photos uploaded!

WunderBlog® & News

Nearby

Air Quality

  Air Quality AQ Index Pollutant
Not available.

Snow Depth

Station Depth Elevation

Earthquake Activity

City Distance Mag. Time & Date
Minimum magnitude displayed is 2.5.

Coastal Water Temperatures

Place Temperature

Stations

Nearby Weather Stations

Station Location Temp. Windchill Dew Point Humidity Wind Precip. Elev Updated Type
                   

Watches & Warnings

There are currently no watches in effect.